createdAt,value
2017-03-29T00:00:34.426Z,56.54
2017-03-29T00:00:56.140Z,56.63
2017-03-29T00:01:17.816Z,56.55
2017-03-29T00:03:01.110Z,56.94
2017-03-29T00:03:22.896Z,56.99
2017-03-29T00:04:22.432Z,57.23
2017-03-29T00:04:48.916Z,57.50
2017-03-29T00:05:20.184Z,57.10
2017-03-29T00:05:41.874Z,56.74
2017-03-29T00:06:40.380Z,56.30
2017-03-29T00:07:02.110Z,56.28
2017-03-29T00:07:28.562Z,56.35
2017-03-29T00:07:50.343Z,56.34
2017-03-29T00:08:12.060Z,56.41
2017-03-29T00:08:46.518Z,57.02
2017-03-29T00:09:19.353Z,57.44
2017-03-29T00:09:42.293Z,57.17
2017-03-29T00:10:03.997Z,56.87
2017-03-29T00:10:26.705Z,56.98
2017-03-29T00:10:53.256Z,57.24
2017-03-29T00:11:55.766Z,57.23
2017-03-29T00:12:17.566Z,57.18
2017-03-29T00:12:39.270Z,57.37
2017-03-29T00:13:00.974Z,57.18
2017-03-29T00:13:22.681Z,57.29
2017-03-29T00:13:44.472Z,56.91
2017-03-29T00:14:06.180Z,56.46
2017-03-29T00:14:32.646Z,56.61
2017-03-29T00:14:54.348Z,56.72
2017-03-29T00:15:16.134Z,57.22
2017-03-29T00:15:42.641Z,57.24
2017-03-29T00:16:04.416Z,56.92
2017-03-29T00:16:26.193Z,56.83
2017-03-29T00:16:47.894Z,56.66
2017-03-29T00:17:14.494Z,56.58
2017-03-29T00:17:36.188Z,56.41
2017-03-29T00:17:57.896Z,56.75
2017-03-29T00:18:29.153Z,57.40
2017-03-29T00:18:50.931Z,57.02
2017-03-29T00:19:12.635Z,56.84
2017-03-29T00:19:34.359Z,56.87
2017-03-29T00:20:36.964Z,57.42
2017-03-29T00:20:58.664Z,57.33
2017-03-29T00:21:20.375Z,57.22
2017-03-29T00:21:42.109Z,57.12
2017-03-29T00:22:03.805Z,57.25
2017-03-29T00:22:25.521Z,57.00
2017-03-29T00:22:47.209Z,57.20
2017-03-29T00:23:08.902Z,57.27
2017-03-29T00:23:30.687Z,57.40
2017-03-29T00:23:57.186Z,57.49
2017-03-29T00:24:18.883Z,57.65
2017-03-29T00:24:40.688Z,57.75
2017-03-29T00:25:02.388Z,58.02
2017-03-29T00:25:24.099Z,58.47
2017-03-29T00:26:31.375Z,57.95
2017-03-29T00:26:53.073Z,57.62
2017-03-29T00:27:19.641Z,57.85
2017-03-29T00:27:41.340Z,57.79
2017-03-29T00:28:48.728Z,57.02
2017-03-29T00:29:10.420Z,57.15
2017-03-29T00:29:32.120Z,56.96
2017-03-29T00:29:53.836Z,56.78
2017-03-29T00:30:46.911Z,57.35
2017-03-29T00:31:08.619Z,57.07
2017-03-29T00:31:39.867Z,56.98
2017-03-29T00:32:01.644Z,56.94
2017-03-29T00:32:23.346Z,57.00
2017-03-29T00:32:54.596Z,57.08
2017-03-29T00:33:16.380Z,56.99
2017-03-29T00:33:38.067Z,56.94
2017-03-29T00:34:04.545Z,56.91
2017-03-29T00:34:55.112Z,56.65
2017-03-29T00:35:16.817Z,57.15
2017-03-29T00:35:38.529Z,57.21
2017-03-29T00:36:00.327Z,57.63
2017-03-29T00:36:22.037Z,57.98
2017-03-29T00:37:20.380Z,57.54
2017-03-29T00:37:42.088Z,57.24
2017-03-29T00:38:03.795Z,56.89
2017-03-29T00:39:02.271Z,57.01
2017-03-29T00:39:24.066Z,57.25
2017-03-29T00:39:45.771Z,57.38
2017-03-29T00:40:12.260Z,57.46
2017-03-29T00:40:34.037Z,57.36
2017-03-29T00:41:00.520Z,57.41
2017-03-29T00:41:22.219Z,57.55
2017-03-29T00:41:44.007Z,57.44
2017-03-29T00:42:07.382Z,57.52
2017-03-29T00:42:29.107Z,57.30
2017-03-29T00:43:31.596Z,57.45
2017-03-29T00:43:53.294Z,57.68
2017-03-29T00:44:15.003Z,57.61
2017-03-29T00:44:36.714Z,57.86
2017-03-29T00:44:58.410Z,58.19
2017-03-29T00:45:20.269Z,57.83
2017-03-29T00:45:42.000Z,57.99
2017-03-29T00:46:03.769Z,57.77
2017-03-29T00:46:25.506Z,57.55
2017-03-29T00:46:47.254Z,57.35
2017-03-29T00:47:08.997Z,57.02
2017-03-29T00:48:17.789Z,57.36
2017-03-29T00:48:51.131Z,57.35
2017-03-29T00:49:03.756Z,57.38
2017-03-29T00:49:35.065Z,57.75
2017-03-29T00:49:56.918Z,57.65
2017-03-29T00:50:18.634Z,57.70
2017-03-29T00:50:40.329Z,57.38
2017-03-29T00:51:02.049Z,57.45
2017-03-29T00:51:23.776Z,57.38
2017-03-29T00:51:45.506Z,57.16
2017-03-29T00:52:07.244Z,57.29
2017-03-29T00:52:29.011Z,57.41
2017-03-29T00:52:50.711Z,57.42
2017-03-29T00:53:12.473Z,57.75
2017-03-29T00:53:34.220Z,57.69
2017-03-29T00:53:55.913Z,58.10
2017-03-29T00:54:17.652Z,58.08
2017-03-29T00:54:39.405Z,58.43
2017-03-29T00:55:05.903Z,58.66
2017-03-29T00:56:08.432Z,58.73
2017-03-29T00:56:34.931Z,58.33
2017-03-29T00:56:56.656Z,58.29
2017-03-29T00:57:18.369Z,58.22
2017-03-29T00:57:40.110Z,58.02
2017-03-29T00:58:01.855Z,58.02
2017-03-29T00:58:23.646Z,57.72
2017-03-29T00:58:45.395Z,57.67
2017-03-29T00:59:07.150Z,58.10
2017-03-29T00:59:28.902Z,58.51
2017-03-29T00:59:50.658Z,58.47
2017-03-29T01:00:12.364Z,58.23
2017-03-29T01:00:34.152Z,58.08
2017-03-29T01:00:55.890Z,57.86
2017-03-29T01:01:17.647Z,57.93
2017-03-29T01:01:39.377Z,57.88
2017-03-29T01:02:01.089Z,57.90
2017-03-29T01:02:22.804Z,57.77
2017-03-29T01:02:44.514Z,57.52
2017-03-29T01:03:11.049Z,57.86
2017-03-29T01:03:42.338Z,57.93
2017-03-29T01:04:04.083Z,57.92
2017-03-29T01:04:25.802Z,57.66
2017-03-29T01:04:47.584Z,58.03
2017-03-29T01:05:09.317Z,57.92
2017-03-29T01:05:31.075Z,58.01
2017-03-29T01:05:52.838Z,58.28
2017-03-29T01:06:14.572Z,58.23
2017-03-29T01:06:36.297Z,58.01
2017-03-29T01:06:58.021Z,57.99
2017-03-29T01:07:33.573Z,57.98
2017-03-29T01:08:13.888Z,57.93
2017-03-29T01:08:26.433Z,57.91
2017-03-29T01:08:48.338Z,57.95
2017-03-29T01:09:14.827Z,58.17
2017-03-29T01:09:36.555Z,58.14
2017-03-29T01:10:07.817Z,57.97
2017-03-29T01:10:29.557Z,57.91
2017-03-29T01:10:51.350Z,57.78
2017-03-29T01:11:17.830Z,58.01
2017-03-29T01:11:39.548Z,57.95
2017-03-29T01:12:10.813Z,57.91
2017-03-29T01:12:32.549Z,58.15
2017-03-29T01:13:03.814Z,58.22
2017-03-29T01:13:25.561Z,58.22
2017-03-29T01:13:56.834Z,58.77
2017-03-29T01:14:18.567Z,58.84
2017-03-29T01:14:49.828Z,58.90
2017-03-29T01:15:11.701Z,59.11
2017-03-29T01:15:38.203Z,59.19
2017-03-29T01:15:59.962Z,59.40
2017-03-29T01:16:21.691Z,59.37
2017-03-29T01:16:48.195Z,59.49
2017-03-29T01:17:09.963Z,59.54
2017-03-29T01:17:41.247Z,58.98
2017-03-29T01:18:03.012Z,58.99
2017-03-29T01:18:34.273Z,58.53
2017-03-29T01:18:56.058Z,58.41
2017-03-29T01:19:27.316Z,58.59
2017-03-29T01:19:49.044Z,58.43
2017-03-29T01:20:20.309Z,58.24
2017-03-29T01:20:42.022Z,58.34
2017-03-29T01:21:08.519Z,58.78
2017-03-29T01:21:30.249Z,58.99
2017-03-29T01:21:56.784Z,59.07
2017-03-29T01:22:18.521Z,59.02
2017-03-29T01:22:40.217Z,59.17
2017-03-29T01:23:01.907Z,59.34
2017-03-29T01:23:23.596Z,59.59
2017-03-29T01:23:45.308Z,59.83
2017-03-29T01:24:07.000Z,59.73
2017-03-29T01:24:28.704Z,59.29
2017-03-29T01:24:50.414Z,59.02
2017-03-29T01:25:12.142Z,58.87
2017-03-29T01:25:33.873Z,59.09
2017-03-29T01:25:55.618Z,59.04
2017-03-29T01:26:17.360Z,58.99
2017-03-29T01:26:39.113Z,59.14
2017-03-29T01:27:00.837Z,59.29
2017-03-29T01:27:22.567Z,59.39
2017-03-29T01:28:30.426Z,59.67
2017-03-29T01:29:01.715Z,59.35
2017-03-29T01:29:23.464Z,59.23
2017-03-29T01:29:45.181Z,59.28
2017-03-29T01:30:11.673Z,59.28
2017-03-29T01:30:33.415Z,59.42
2017-03-29T01:31:31.795Z,59.64
2017-03-29T01:31:53.515Z,59.75
2017-03-29T01:32:24.784Z,59.65
2017-03-29T01:32:46.496Z,59.32
2017-03-29T01:33:08.345Z,58.90
2017-03-29T01:33:34.877Z,58.76
2017-03-29T01:33:56.634Z,59.31
2017-03-29T01:34:23.157Z,59.51
2017-03-29T01:34:54.430Z,59.39
2017-03-29T01:35:56.969Z,59.20
2017-03-29T01:36:18.696Z,60.05
2017-03-29T01:36:40.384Z,60.11
2017-03-29T01:37:02.099Z,59.67
2017-03-29T01:37:23.825Z,59.85
2017-03-29T01:37:45.590Z,59.78
2017-03-29T01:38:07.299Z,59.91
2017-03-29T01:38:29.048Z,59.80
2017-03-29T01:39:26.780Z,59.51
2017-03-29T01:40:15.078Z,59.17
2017-03-29T01:40:36.833Z,59.31
2017-03-29T01:41:35.222Z,58.94
2017-03-29T01:42:01.719Z,58.84
2017-03-29T01:42:33.007Z,58.85
2017-03-29T01:42:54.759Z,59.29
2017-03-29T01:43:26.018Z,59.20
2017-03-29T01:43:47.753Z,59.09
2017-03-29T01:44:09.486Z,58.81
2017-03-29T01:45:16.607Z,59.64
2017-03-29T01:46:04.830Z,59.57
2017-03-29T01:47:19.139Z,59.98
2017-03-29T01:47:57.969Z,60.03
2017-03-29T01:48:14.327Z,60.40
2017-03-29T01:48:40.849Z,60.24
2017-03-29T01:49:02.557Z,60.05
2017-03-29T01:49:24.245Z,60.18
2017-03-29T01:49:45.940Z,60.09
2017-03-29T01:50:07.641Z,59.92
2017-03-29T01:50:29.349Z,59.73
2017-03-29T01:50:51.090Z,59.60
2017-03-29T01:51:12.811Z,59.92
2017-03-29T01:51:34.535Z,60.41
2017-03-29T01:51:56.280Z,60.13
2017-03-29T01:52:18.004Z,59.98
2017-03-29T01:52:39.834Z,59.79
2017-03-29T01:53:01.654Z,59.72
2017-03-29T01:53:26.079Z,59.90
2017-03-29T01:53:47.869Z,59.69
2017-03-29T01:54:09.587Z,59.64
2017-03-29T01:54:40.849Z,60.27
2017-03-29T01:55:02.638Z,60.05
2017-03-29T01:55:24.344Z,59.97
2017-03-29T01:55:46.299Z,59.86
2017-03-29T01:56:07.994Z,59.71
2017-03-29T01:56:29.777Z,59.81
2017-03-29T01:56:51.493Z,59.70
2017-03-29T01:57:13.217Z,59.78
2017-03-29T01:57:44.601Z,59.91
2017-03-29T01:58:06.232Z,59.88
2017-03-29T01:58:32.706Z,59.88
2017-03-29T01:58:54.511Z,59.96
2017-03-29T01:59:16.289Z,59.87
2017-03-29T01:59:42.841Z,59.73
2017-03-29T02:00:04.624Z,59.75
2017-03-29T02:01:11.909Z,59.65
2017-03-29T02:01:33.704Z,59.77
2017-03-29T02:02:00.218Z,59.65
2017-03-29T02:02:21.898Z,60.21
2017-03-29T02:02:43.683Z,60.48
2017-03-29T02:03:10.158Z,60.77
2017-03-29T02:03:31.880Z,60.77
2017-03-29T02:03:53.667Z,60.94
2017-03-29T02:04:24.955Z,60.47
2017-03-29T02:04:46.621Z,60.72
2017-03-29T02:05:08.392Z,61.32
2017-03-29T02:05:34.869Z,61.48
2017-03-29T02:05:56.555Z,61.43
2017-03-29T02:06:55.102Z,61.04
2017-03-29T02:07:16.791Z,61.06
2017-03-29T02:07:48.049Z,61.11
2017-03-29T02:08:14.600Z,61.12
2017-03-29T02:08:36.302Z,60.91
2017-03-29T02:08:58.022Z,60.75
2017-03-29T02:09:56.544Z,61.41
2017-03-29T02:10:23.025Z,61.56
2017-03-29T02:10:44.749Z,61.31
2017-03-29T02:11:06.526Z,61.19
2017-03-29T02:11:28.241Z,61.30
2017-03-29T02:11:50.025Z,61.16
2017-03-29T02:12:16.654Z,60.91
2017-03-29T02:12:43.151Z,60.65
2017-03-29T02:13:04.857Z,60.83
2017-03-29T02:13:31.421Z,60.89
2017-03-29T02:13:53.117Z,60.88
2017-03-29T02:14:14.830Z,60.88
2017-03-29T02:14:46.209Z,60.73
2017-03-29T02:15:07.844Z,60.71
2017-03-29T02:15:39.122Z,60.72
2017-03-29T02:16:00.880Z,61.10
2017-03-29T02:16:32.153Z,60.96
2017-03-29T02:16:53.880Z,60.84
2017-03-29T02:17:20.425Z,60.83
2017-03-29T02:17:51.680Z,60.92
2017-03-29T02:18:13.368Z,60.85
2017-03-29T02:18:44.645Z,61.30
2017-03-29T02:19:06.391Z,61.42
2017-03-29T02:20:04.791Z,61.46
2017-03-29T02:20:31.268Z,61.63
2017-03-29T02:20:52.985Z,61.53
2017-03-29T02:21:14.742Z,61.57
2017-03-29T02:21:36.450Z,61.39
2017-03-29T02:22:02.960Z,61.64
2017-03-29T02:22:24.747Z,61.46
2017-03-29T02:22:46.443Z,61.74
2017-03-29T02:23:44.767Z,62.04
2017-03-29T02:24:06.464Z,62.19
2017-03-29T02:24:28.165Z,62.17
2017-03-29T02:25:35.447Z,61.72
2017-03-29T02:25:57.137Z,61.62
2017-03-29T02:27:04.784Z,61.93
2017-03-29T02:27:26.489Z,61.62
2017-03-29T02:27:48.256Z,61.48
2017-03-29T02:28:19.512Z,61.43
2017-03-29T02:28:41.202Z,61.63
2017-03-29T02:29:07.746Z,62.07
2017-03-29T02:29:29.435Z,62.04
2017-03-29T02:29:55.915Z,62.00
2017-03-29T02:30:17.635Z,62.29
2017-03-29T02:30:39.409Z,62.55
2017-03-29T02:31:01.116Z,62.64
2017-03-29T02:31:22.822Z,62.40
2017-03-29T02:31:44.532Z,62.38
2017-03-29T02:32:16.325Z,62.56
2017-03-29T02:32:53.843Z,62.74
2017-03-29T02:33:16.621Z,63.04
2017-03-29T02:33:38.424Z,63.03
2017-03-29T02:34:04.898Z,62.71
2017-03-29T02:34:31.381Z,62.53
2017-03-29T02:34:53.138Z,62.84
2017-03-29T02:35:14.838Z,63.11
2017-03-29T02:35:41.307Z,62.89
2017-03-29T02:36:03.016Z,62.87
2017-03-29T02:36:29.557Z,63.02
2017-03-29T02:36:51.258Z,62.82
2017-03-29T02:37:12.963Z,62.64
2017-03-29T02:37:34.715Z,62.88
2017-03-29T02:37:56.489Z,62.94
2017-03-29T02:38:22.957Z,62.73
2017-03-29T02:38:44.650Z,62.63
2017-03-29T02:39:16.026Z,62.41
2017-03-29T02:39:37.655Z,62.45
2017-03-29T02:40:08.928Z,62.28
2017-03-29T02:40:30.677Z,62.28
2017-03-29T02:41:01.956Z,62.60
2017-03-29T02:41:23.628Z,62.81
2017-03-29T02:41:45.398Z,63.02
2017-03-29T02:42:07.104Z,62.74
2017-03-29T02:42:28.837Z,62.72
2017-03-29T02:42:55.376Z,63.30
2017-03-29T02:43:17.084Z,63.26
2017-03-29T02:43:38.814Z,63.50
2017-03-29T02:44:10.078Z,63.30
2017-03-29T02:44:31.872Z,63.23
2017-03-29T02:44:58.349Z,62.98
2017-03-29T02:45:20.070Z,62.89
2017-03-29T02:45:41.838Z,62.90
2017-03-29T02:46:08.315Z,62.66
2017-03-29T02:46:30.028Z,62.64
2017-03-29T02:47:28.559Z,62.43
2017-03-29T02:47:50.263Z,62.45
2017-03-29T02:48:11.954Z,62.67
2017-03-29T02:48:43.339Z,62.88
2017-03-29T02:49:04.992Z,63.15
2017-03-29T02:49:36.244Z,63.13
2017-03-29T02:49:58.021Z,62.89
2017-03-29T02:50:29.298Z,62.91
2017-03-29T02:50:50.995Z,62.57
2017-03-29T02:51:12.779Z,62.52
2017-03-29T02:51:34.482Z,62.82
2017-03-29T02:52:00.962Z,62.65
2017-03-29T02:52:27.504Z,63.27
2017-03-29T02:52:53.991Z,63.43
2017-03-29T02:53:15.689Z,63.37
2017-03-29T02:53:47.089Z,62.87
2017-03-29T02:54:08.738Z,62.63
2017-03-29T02:54:40.018Z,62.58
2017-03-29T02:55:04.541Z,62.57
2017-03-29T02:55:26.093Z,62.58
2017-03-29T02:55:47.789Z,62.47
2017-03-29T02:56:46.269Z,62.33
2017-03-29T02:57:17.547Z,62.23
2017-03-29T02:57:39.232Z,62.49
2017-03-29T02:58:00.994Z,62.24
2017-03-29T02:58:22.709Z,62.25
2017-03-29T02:59:25.219Z,62.15
2017-03-29T02:59:51.699Z,62.14
2017-03-29T03:00:13.389Z,62.34
2017-03-29T03:00:35.194Z,62.31
2017-03-29T03:00:57.921Z,62.45
2017-03-29T03:01:24.405Z,62.64
2017-03-29T03:01:46.188Z,62.53
2017-03-29T03:02:12.668Z,62.91
2017-03-29T03:02:34.373Z,63.21
2017-03-29T03:02:56.151Z,63.41
2017-03-29T03:03:22.644Z,63.32
2017-03-29T03:03:44.341Z,63.28
2017-03-29T03:04:06.047Z,63.21
2017-03-29T03:04:27.820Z,62.92
2017-03-29T03:05:26.180Z,62.49
2017-03-29T03:05:47.957Z,62.62
2017-03-29T03:06:19.218Z,63.43
2017-03-29T03:06:41.026Z,63.57
2017-03-29T03:07:02.827Z,63.69
2017-03-29T03:08:10.214Z,62.93
2017-03-29T03:08:36.681Z,63.04
2017-03-29T03:08:58.386Z,63.33
2017-03-29T03:09:20.082Z,64.07
2017-03-29T03:10:22.680Z,63.49
2017-03-29T03:10:44.393Z,63.41
2017-03-29T03:11:06.096Z,63.23
2017-03-29T03:11:27.799Z,63.08
2017-03-29T03:11:49.587Z,63.74
2017-03-29T03:12:11.286Z,64.02
2017-03-29T03:12:33.003Z,63.80
2017-03-29T03:12:54.696Z,63.55
2017-03-29T03:13:16.500Z,63.51
2017-03-29T03:13:38.210Z,63.59
2017-03-29T03:13:59.902Z,63.41
2017-03-29T03:14:26.477Z,63.14
2017-03-29T03:14:48.188Z,63.20
2017-03-29T03:15:09.899Z,63.18
2017-03-29T03:15:31.609Z,63.09
2017-03-29T03:15:53.499Z,62.99
2017-03-29T03:16:56.008Z,63.38
2017-03-29T03:17:17.785Z,63.33
2017-03-29T03:17:39.487Z,63.00
2017-03-29T03:18:01.181Z,63.01
2017-03-29T03:18:27.744Z,62.93
2017-03-29T03:18:49.439Z,63.19
2017-03-29T03:19:20.682Z,63.81
2017-03-29T03:19:42.459Z,63.79
2017-03-29T03:20:13.720Z,63.57
2017-03-29T03:20:35.443Z,63.74
2017-03-29T03:21:06.685Z,63.79
2017-03-29T03:21:28.454Z,64.17
2017-03-29T03:21:50.155Z,64.12
2017-03-29T03:22:11.856Z,64.12
2017-03-29T03:22:38.424Z,63.88
2017-03-29T03:23:00.225Z,63.68
2017-03-29T03:23:22.022Z,64.18
2017-03-29T03:23:43.794Z,64.09
2017-03-29T03:24:05.481Z,63.72
2017-03-29T03:24:27.251Z,63.76
2017-03-29T03:24:48.956Z,63.63
2017-03-29T03:25:10.645Z,63.43
2017-03-29T03:25:32.339Z,63.38
2017-03-29T03:26:03.586Z,63.49
2017-03-29T03:26:25.397Z,63.47
2017-03-29T03:26:47.089Z,63.50
2017-03-29T03:27:13.575Z,63.79
2017-03-29T03:27:35.359Z,64.27
2017-03-29T03:28:01.833Z,64.25
2017-03-29T03:28:23.562Z,64.27
2017-03-29T03:28:45.448Z,64.45
2017-03-29T03:29:07.151Z,64.65
2017-03-29T03:29:28.840Z,64.55
2017-03-29T03:29:50.533Z,64.50
2017-03-29T03:30:12.316Z,64.86
2017-03-29T03:30:34.016Z,64.60
2017-03-29T03:30:55.708Z,64.21
2017-03-29T03:31:17.413Z,64.04
2017-03-29T03:31:43.971Z,63.62
2017-03-29T03:32:05.667Z,63.84
2017-03-29T03:32:27.362Z,64.06
2017-03-29T03:32:49.057Z,64.15
2017-03-29T03:33:10.861Z,64.37
2017-03-29T03:33:32.573Z,64.34
2017-03-29T03:33:54.281Z,63.85
2017-03-29T03:34:25.536Z,63.51
2017-03-29T03:34:47.396Z,63.46
2017-03-29T03:35:13.968Z,63.54
2017-03-29T03:35:40.528Z,63.52
2017-03-29T03:36:02.304Z,64.05
2017-03-29T03:36:33.558Z,65.08
2017-03-29T03:36:55.262Z,64.81
2017-03-29T03:37:26.511Z,64.09
2017-03-29T03:37:48.306Z,63.84
2017-03-29T03:38:10.022Z,63.59
2017-03-29T03:38:31.722Z,63.80
2017-03-29T03:38:58.282Z,64.45
2017-03-29T03:39:19.992Z,64.85
2017-03-29T03:39:41.705Z,65.10
2017-03-29T03:40:12.949Z,65.23
2017-03-29T03:40:34.723Z,64.93
2017-03-29T03:40:56.428Z,64.61
2017-03-29T03:41:22.897Z,64.37
2017-03-29T03:41:44.684Z,64.19
2017-03-29T03:42:06.380Z,64.20
2017-03-29T03:42:32.849Z,64.06
2017-03-29T03:42:54.623Z,64.24
2017-03-29T03:43:16.334Z,64.98
2017-03-29T03:43:47.590Z,65.07
2017-03-29T03:44:18.845Z,64.75
2017-03-29T03:44:40.620Z,64.24
2017-03-29T03:45:02.336Z,64.41
2017-03-29T03:45:24.065Z,64.48
2017-03-29T03:45:46.895Z,64.73
2017-03-29T03:46:08.637Z,64.84
2017-03-29T03:46:30.417Z,64.92
2017-03-29T03:46:52.198Z,64.93
2017-03-29T03:47:13.903Z,64.85
2017-03-29T03:47:40.476Z,64.55
2017-03-29T03:48:02.199Z,64.65
2017-03-29T03:48:23.910Z,64.92
2017-03-29T03:48:45.616Z,64.92
2017-03-29T03:49:07.425Z,64.71
2017-03-29T03:49:29.126Z,64.59
2017-03-29T03:49:50.815Z,65.07
2017-03-29T03:50:17.394Z,65.75
2017-03-29T03:50:39.085Z,65.37
2017-03-29T03:51:10.342Z,65.29
2017-03-29T03:51:32.134Z,65.46
2017-03-29T03:51:53.858Z,65.10
2017-03-29T03:52:15.564Z,64.71
2017-03-29T03:52:37.261Z,64.79
2017-03-29T03:53:08.509Z,64.60
2017-03-29T03:53:30.301Z,64.48
2017-03-29T03:53:52.009Z,65.02
2017-03-29T03:54:13.725Z,65.29
2017-03-29T03:54:35.505Z,65.21
2017-03-29T03:54:57.200Z,64.87
2017-03-29T03:55:18.900Z,64.64
2017-03-29T03:55:50.145Z,64.54
2017-03-29T03:56:11.924Z,64.32
2017-03-29T03:56:33.618Z,64.38
2017-03-29T03:56:55.343Z,64.35
2017-03-29T03:57:34.222Z,64.51
2017-03-29T03:57:54.739Z,65.13
2017-03-29T03:58:16.428Z,65.13
2017-03-29T03:58:38.137Z,65.29
2017-03-29T03:59:04.692Z,65.37
2017-03-29T03:59:26.397Z,65.38
2017-03-29T03:59:52.877Z,65.35
2017-03-29T04:00:14.571Z,65.25
2017-03-29T04:00:36.353Z,65.01
2017-03-29T04:00:58.054Z,64.89
2017-03-29T04:01:19.743Z,64.75
2017-03-29T04:02:18.173Z,64.58
2017-03-29T04:02:39.883Z,64.66
2017-03-29T04:03:42.385Z,64.20
2017-03-29T04:04:04.101Z,64.31
2017-03-29T04:04:25.806Z,64.39
2017-03-29T04:04:47.593Z,64.55
2017-03-29T04:05:09.299Z,64.33
2017-03-29T04:05:31.008Z,64.05
2017-03-29T04:05:52.716Z,63.92
2017-03-29T04:06:23.973Z,64.18
2017-03-29T04:06:45.738Z,64.42
2017-03-29T04:07:07.432Z,64.69
2017-03-29T04:07:38.681Z,64.97
2017-03-29T04:08:00.508Z,65.04
2017-03-29T04:09:08.313Z,65.20
2017-03-29T04:09:30.115Z,65.01
2017-03-29T04:10:01.372Z,64.80
2017-03-29T04:10:23.212Z,64.74
2017-03-29T04:10:44.920Z,64.61
2017-03-29T04:11:06.635Z,64.89
2017-03-29T04:11:29.352Z,65.02
2017-03-29T04:11:51.127Z,65.16
2017-03-29T04:12:12.853Z,65.35
2017-03-29T04:12:39.377Z,65.17
2017-03-29T04:13:01.190Z,65.54
2017-03-29T04:14:08.472Z,66.16
2017-03-29T04:14:59.010Z,65.56
2017-03-29T04:15:20.701Z,65.35
2017-03-29T04:16:21.838Z,64.67
2017-03-29T04:16:43.534Z,64.69
2017-03-29T04:17:14.795Z,65.18
2017-03-29T04:17:36.568Z,65.68
2017-03-29T04:17:58.265Z,66.03
2017-03-29T04:18:20.020Z,65.81
2017-03-29T04:18:41.840Z,65.65
2017-03-29T04:19:03.538Z,65.40
2017-03-29T04:19:25.241Z,65.29
2017-03-29T04:20:23.504Z,65.11
2017-03-29T04:20:45.210Z,65.10
2017-03-29T04:21:16.468Z,64.95
2017-03-29T04:21:38.244Z,64.86
2017-03-29T04:21:59.952Z,64.66
2017-03-29T04:22:21.653Z,64.45
2017-03-29T04:22:46.251Z,64.80
2017-03-29T04:23:17.507Z,64.44
2017-03-29T04:23:39.209Z,64.29
2017-03-29T04:24:10.479Z,64.44
2017-03-29T04:24:32.261Z,64.38
2017-03-29T04:24:53.982Z,64.63
2017-03-29T04:25:15.682Z,64.74
2017-03-29T04:25:37.463Z,64.62
2017-03-29T04:26:08.711Z,64.72
2017-03-29T04:26:30.406Z,64.63
2017-03-29T04:26:52.209Z,64.83
2017-03-29T04:27:13.904Z,64.67
2017-03-29T04:27:35.593Z,64.72
2017-03-29T04:27:57.282Z,65.02
2017-03-29T04:28:19.071Z,65.34
2017-03-29T04:28:40.775Z,65.30
2017-03-29T04:29:02.470Z,65.36
2017-03-29T04:29:29.029Z,65.54
2017-03-29T04:29:50.705Z,65.40
2017-03-29T04:30:12.450Z,65.55
2017-03-29T04:30:38.934Z,65.30
2017-03-29T04:31:00.712Z,65.57
2017-03-29T04:31:22.438Z,65.74
2017-03-29T04:31:44.247Z,65.61
2017-03-29T04:32:06.050Z,65.34
2017-03-29T04:32:32.620Z,65.51
2017-03-29T04:32:59.091Z,65.60
2017-03-29T04:33:20.794Z,65.33
2017-03-29T04:33:42.577Z,65.20
2017-03-29T04:34:09.058Z,64.96
2017-03-29T04:34:30.861Z,64.85
2017-03-29T04:35:02.109Z,65.00
2017-03-29T04:35:24.004Z,64.82
2017-03-29T04:35:45.790Z,64.96
2017-03-29T04:36:10.143Z,65.12
2017-03-29T04:36:31.835Z,65.19
2017-03-29T04:36:58.409Z,65.46
2017-03-29T04:37:20.127Z,65.50
2017-03-29T04:38:22.726Z,65.55
2017-03-29T04:38:44.424Z,65.79
2017-03-29T04:39:15.685Z,65.71
2017-03-29T04:39:37.455Z,65.61
2017-03-29T04:39:59.149Z,65.58
2017-03-29T04:40:25.650Z,65.38
2017-03-29T04:40:47.355Z,65.13
2017-03-29T04:41:09.140Z,64.85
2017-03-29T04:41:35.625Z,64.63
2017-03-29T04:41:57.309Z,65.10
2017-03-29T04:42:19.099Z,66.25
2017-03-29T04:42:50.362Z,66.95
2017-03-29T04:43:16.840Z,67.67
2017-03-29T04:43:38.622Z,67.48
2017-03-29T04:44:00.332Z,67.36
2017-03-29T04:44:31.611Z,67.15
2017-03-29T04:44:53.359Z,66.82
2017-03-29T04:45:15.091Z,66.50
2017-03-29T04:45:41.566Z,66.09
2017-03-29T04:46:03.345Z,66.42
2017-03-29T04:46:29.809Z,66.27
2017-03-29T04:47:28.173Z,65.86
2017-03-29T04:47:49.861Z,65.56
2017-03-29T04:48:21.115Z,65.58
2017-03-29T04:48:42.879Z,65.62
2017-03-29T04:49:14.125Z,65.52
2017-03-29T04:49:36.022Z,65.64
2017-03-29T04:50:07.278Z,65.77
2017-03-29T04:50:29.113Z,66.13
2017-03-29T04:51:27.368Z,65.72
2017-03-29T04:51:58.740Z,65.61
2017-03-29T04:52:20.373Z,66.11
2017-03-29T04:52:51.631Z,66.76
2017-03-29T04:53:13.396Z,66.41
2017-03-29T04:53:35.089Z,65.93
2017-03-29T04:54:01.580Z,65.96
2017-03-29T04:54:28.156Z,66.83
2017-03-29T04:54:49.865Z,66.55
2017-03-29T04:55:11.577Z,66.61
2017-03-29T04:55:39.657Z,66.70
2017-03-29T04:56:10.947Z,66.59
2017-03-29T04:57:18.309Z,67.32
2017-03-29T04:57:39.994Z,67.35
2017-03-29T04:58:01.686Z,67.20
2017-03-29T04:58:23.404Z,66.90
2017-03-29T04:58:45.161Z,66.65
2017-03-29T04:59:06.861Z,66.56
2017-03-29T04:59:28.570Z,66.61
2017-03-29T04:59:50.378Z,66.46
2017-03-29T05:00:12.148Z,66.75
2017-03-29T05:00:43.454Z,67.19
2017-03-29T05:01:05.202Z,67.04
2017-03-29T05:01:26.915Z,67.01
2017-03-29T05:01:48.629Z,67.22
2017-03-29T05:02:10.339Z,67.06
2017-03-29T05:02:32.111Z,66.86
2017-03-29T05:02:53.838Z,66.73
2017-03-29T05:03:20.319Z,66.64
2017-03-29T05:03:42.090Z,67.37
2017-03-29T05:04:03.792Z,67.41
2017-03-29T05:04:30.266Z,67.02
2017-03-29T05:04:52.044Z,66.87
2017-03-29T05:05:18.540Z,66.74
2017-03-29T05:05:40.246Z,67.46
2017-03-29T05:06:11.614Z,67.13
2017-03-29T05:06:33.278Z,67.12
2017-03-29T05:07:04.550Z,67.38
2017-03-29T05:07:26.307Z,67.28
2017-03-29T05:07:57.600Z,66.70
2017-03-29T05:08:19.274Z,66.38
2017-03-29T05:08:50.536Z,65.92
2017-03-29T05:09:12.292Z,65.96
2017-03-29T05:09:33.982Z,66.28
2017-03-29T05:10:05.360Z,66.98
2017-03-29T05:10:27.010Z,66.97
2017-03-29T05:10:48.720Z,66.98
2017-03-29T05:11:51.253Z,67.27
2017-03-29T05:12:53.786Z,66.57
2017-03-29T05:13:15.573Z,66.54
2017-03-29T05:13:46.831Z,66.31
2017-03-29T05:14:08.612Z,66.15
2017-03-29T05:14:30.317Z,66.20
2017-03-29T05:14:52.022Z,66.01
2017-03-29T05:15:13.720Z,65.80
2017-03-29T05:15:35.494Z,66.09
2017-03-29T05:15:57.197Z,66.23
2017-03-29T05:16:18.884Z,66.10
2017-03-29T05:16:45.433Z,66.12
2017-03-29T05:17:07.134Z,66.36
2017-03-29T05:17:33.614Z,66.20
2017-03-29T05:17:55.310Z,66.12
2017-03-29T05:18:53.877Z,66.19
2017-03-29T05:19:25.260Z,66.33
2017-03-29T05:19:46.924Z,66.18
2017-03-29T05:20:45.368Z,66.52
2017-03-29T05:21:07.087Z,66.68
2017-03-29T05:21:28.785Z,66.42
2017-03-29T05:21:55.356Z,66.15
2017-03-29T05:22:17.052Z,65.96
2017-03-29T05:22:48.337Z,66.38
2017-03-29T05:23:10.021Z,66.58
2017-03-29T05:23:41.276Z,66.68
2017-03-29T05:24:02.978Z,66.49
2017-03-29T05:24:24.742Z,66.56
2017-03-29T05:25:24.182Z,67.22
2017-03-29T05:25:45.882Z,67.23
2017-03-29T05:26:07.616Z,67.34
2017-03-29T05:26:29.333Z,66.97
2017-03-29T05:27:00.584Z,66.61
2017-03-29T05:27:22.355Z,66.20
2017-03-29T05:28:20.634Z,65.87
2017-03-29T05:28:42.556Z,65.85
2017-03-29T05:29:09.037Z,66.04
2017-03-29T05:29:30.731Z,66.32
2017-03-29T05:30:01.992Z,66.13
2017-03-29T05:30:23.678Z,66.62
2017-03-29T05:30:45.398Z,66.56
2017-03-29T05:31:16.667Z,66.35
2017-03-29T05:31:38.381Z,66.46
2017-03-29T05:32:45.667Z,66.50
2017-03-29T05:33:48.177Z,66.18
2017-03-29T05:34:19.451Z,66.10
2017-03-29T05:34:41.141Z,66.13
2017-03-29T05:35:02.841Z,66.28
2017-03-29T05:35:34.104Z,66.62
2017-03-29T05:35:55.817Z,66.81
2017-03-29T05:36:27.111Z,67.35
2017-03-29T05:36:48.856Z,67.40
2017-03-29T05:37:56.157Z,66.87
2017-03-29T05:38:17.851Z,67.30
2017-03-29T05:38:39.570Z,67.31
2017-03-29T05:39:01.276Z,66.89
2017-03-29T05:39:27.729Z,67.02
2017-03-29T05:39:49.674Z,67.40
2017-03-29T05:40:11.235Z,67.45
2017-03-29T05:40:37.710Z,67.76
2017-03-29T05:40:59.408Z,67.93
2017-03-29T05:42:06.698Z,67.28
2017-03-29T05:42:28.426Z,67.33
2017-03-29T05:42:50.122Z,67.44